Rowley, Iowa
Current Conditions -  °F | °C
As of 6:55 PM on Saturday 20 Dec 2014 (Local Time) from KIIB Reporting Station
Haze Haze  
Wind Chill: 24°   Ceiling: 300
Heat Index: 32°   Visibility: 1.5mi
Dew Point: 32°   Wind: 9mph
Humidity: 100%   Direction: 150°SSE
Pressure: 30.17"   Gusts: NA
Location:  42.37°N, 91.84°W
Report Text: KIIB 210055Z AUTO 15008KT 1 1/2SM BR OVC003 00/00 A3017 RMK AO2
Loading
Personal Weather Stations






























Interactive Weather Map New forecast layout! Learn more

10-Day Weather Forecast

Advertisements
Track Severe Weather on mobile